createdAt,value
2019-01-26T00:01:02.116Z,4.38
2019-01-26T00:02:09.488Z,4.38
2019-01-26T00:03:14.233Z,4.39
2019-01-26T00:04:19.035Z,4.38
2019-01-26T00:05:23.823Z,4.41
2019-01-26T00:06:28.635Z,4.41
2019-01-26T00:07:33.394Z,4.41
2019-01-26T00:08:38.574Z,4.39
2019-01-26T00:09:43.707Z,4.42
2019-01-26T00:10:48.609Z,4.45
2019-01-26T00:11:53.669Z,4.42
2019-01-26T00:12:58.926Z,4.43
2019-01-26T00:14:04.101Z,4.43
2019-01-26T00:15:08.996Z,4.45
2019-01-26T00:16:17.182Z,4.47
2019-01-26T00:17:20.412Z,4.49
2019-01-26T00:18:25.868Z,4.49
2019-01-26T00:19:30.646Z,4.47
2019-01-26T00:20:36.560Z,4.51
2019-01-26T00:21:41.720Z,4.49
2019-01-26T00:22:47.225Z,4.49
2019-01-26T00:23:51.824Z,4.51
2019-01-26T00:24:56.634Z,4.52
2019-01-26T00:26:01.114Z,4.52
2019-01-26T00:27:05.905Z,4.53
2019-01-26T00:28:10.393Z,4.51
2019-01-26T00:29:15.878Z,4.52
2019-01-26T00:30:20.653Z,4.55
2019-01-26T00:31:25.796Z,4.52
2019-01-26T00:32:30.925Z,4.55
2019-01-26T00:33:35.425Z,4.55
2019-01-26T00:34:40.321Z,4.53
2019-01-26T00:35:45.138Z,4.56
2019-01-26T00:36:49.689Z,4.54
2019-01-26T00:37:54.496Z,4.57
2019-01-26T00:38:59.799Z,4.62
2019-01-26T00:40:05.690Z,4.59
2019-01-26T00:41:11.308Z,4.64
2019-01-26T00:42:16.416Z,4.64
2019-01-26T00:43:21.258Z,4.61
2019-01-26T00:44:26.822Z,4.63
2019-01-26T00:45:31.606Z,4.60
2019-01-26T00:46:36.388Z,4.63
2019-01-26T00:47:40.912Z,4.63
2019-01-26T00:48:46.314Z,4.61
2019-01-26T00:49:51.483Z,4.62
2019-01-26T00:50:56.565Z,4.65
2019-01-26T00:52:02.118Z,4.65
2019-01-26T00:53:06.695Z,4.64
2019-01-26T00:54:13.648Z,4.64
2019-01-26T00:55:18.411Z,4.66
2019-01-26T00:56:23.183Z,4.68
2019-01-26T00:57:28.272Z,4.72
2019-01-26T00:58:33.077Z,4.71
2019-01-26T00:59:38.397Z,4.71
2019-01-26T01:00:43.463Z,4.72
2019-01-26T01:01:48.540Z,4.70
2019-01-26T01:02:53.769Z,4.69
2019-01-26T01:03:58.556Z,4.74
2019-01-26T01:05:03.318Z,4.78
2019-01-26T01:06:07.802Z,4.74
2019-01-26T01:07:12.974Z,4.74
2019-01-26T01:08:17.715Z,4.75
2019-01-26T01:09:22.526Z,4.75
2019-01-26T01:10:27.284Z,4.76
2019-01-26T01:11:32.179Z,4.77
2019-01-26T01:12:37.260Z,4.74
2019-01-26T01:13:42.260Z,4.75
2019-01-26T01:14:47.904Z,4.80
2019-01-26T01:15:52.698Z,4.79
2019-01-26T01:16:57.766Z,4.84
2019-01-26T01:18:02.547Z,4.80
2019-01-26T01:19:07.357Z,4.80
2019-01-26T01:20:11.891Z,4.83
2019-01-26T01:21:16.665Z,4.84
2019-01-26T01:22:21.530Z,4.86
2019-01-26T01:23:26.746Z,4.82
2019-01-26T01:24:31.517Z,4.84
2019-01-26T01:25:36.696Z,4.81
2019-01-26T01:26:41.458Z,4.86
2019-01-26T01:27:47.270Z,4.86
2019-01-26T01:28:51.816Z,4.85
2019-01-26T01:29:57.043Z,4.85
2019-01-26T01:31:01.790Z,4.88
2019-01-26T01:32:06.564Z,4.86
2019-01-26T01:33:13.198Z,4.88
2019-01-26T01:34:18.110Z,4.89
2019-01-26T01:35:22.629Z,4.88
2019-01-26T01:36:27.746Z,4.90
2019-01-26T01:37:32.526Z,4.92
2019-01-26T01:38:37.331Z,4.88
2019-01-26T01:39:42.122Z,4.90
2019-01-26T01:40:47.298Z,4.91
2019-01-26T01:41:52.082Z,4.91
2019-01-26T01:42:56.900Z,4.93
2019-01-26T01:44:01.686Z,4.92
2019-01-26T01:45:07.801Z,4.94
2019-01-26T01:46:13.023Z,4.95
2019-01-26T01:47:18.104Z,4.93
2019-01-26T01:48:22.930Z,4.95
2019-01-26T01:49:27.716Z,4.97
2019-01-26T01:50:32.474Z,4.97
2019-01-26T01:51:37.277Z,4.99
2019-01-26T01:52:42.154Z,4.98
2019-01-26T01:53:46.948Z,5.00
2019-01-26T01:54:52.080Z,4.99
2019-01-26T01:55:57.692Z,5.00
2019-01-26T01:57:03.206Z,5.00
2019-01-26T01:58:08.001Z,5.00
2019-01-26T01:59:12.862Z,5.02
2019-01-26T02:00:19.599Z,5.03
2019-01-26T02:01:24.725Z,5.04
2019-01-26T02:02:29.942Z,5.05
2019-01-26T02:03:35.535Z,5.05
2019-01-26T02:04:40.404Z,5.04
2019-01-26T02:05:45.316Z,5.04
2019-01-26T02:06:50.133Z,5.06
2019-01-26T02:07:54.989Z,5.05
2019-01-26T02:09:00.170Z,5.02
2019-01-26T02:10:05.567Z,5.07
2019-01-26T02:11:10.397Z,5.03
2019-01-26T02:12:16.033Z,5.05
2019-01-26T02:13:21.289Z,5.05
2019-01-26T02:14:26.179Z,5.07
2019-01-26T02:15:31.401Z,5.06
2019-01-26T02:16:36.306Z,5.08
2019-01-26T02:17:41.356Z,5.10
2019-01-26T02:18:46.626Z,5.08
2019-01-26T02:19:51.741Z,5.11
2019-01-26T02:20:56.511Z,5.05
2019-01-26T02:22:01.642Z,5.06
2019-01-26T02:23:06.903Z,5.06
2019-01-26T02:24:11.789Z,5.04
2019-01-26T02:25:16.617Z,5.04
2019-01-26T02:26:21.391Z,5.07
2019-01-26T02:27:26.274Z,5.06
2019-01-26T02:28:31.100Z,5.08
2019-01-26T02:29:36.418Z,5.07
2019-01-26T02:30:41.556Z,5.10
2019-01-26T02:31:46.314Z,5.10
2019-01-26T02:32:51.096Z,5.13
2019-01-26T02:33:55.915Z,5.10
2019-01-26T02:35:00.766Z,5.12
2019-01-26T02:36:05.547Z,5.14
2019-01-26T02:37:10.875Z,5.12
2019-01-26T02:38:15.691Z,5.13
2019-01-26T02:39:20.529Z,5.14
2019-01-26T02:40:25.338Z,5.13
2019-01-26T02:41:30.732Z,5.17
2019-01-26T02:42:36.069Z,5.17
2019-01-26T02:43:41.979Z,5.19
2019-01-26T02:44:46.896Z,5.19
2019-01-26T02:45:52.487Z,5.19
2019-01-26T02:46:58.023Z,5.18
2019-01-26T02:48:03.584Z,5.17
2019-01-26T02:49:09.757Z,5.18
2019-01-26T02:50:16.278Z,5.21
2019-01-26T02:51:21.076Z,5.18
2019-01-26T02:52:26.388Z,5.20
2019-01-26T02:53:32.383Z,5.21
2019-01-26T02:54:37.900Z,5.22
2019-01-26T02:55:42.712Z,5.22
2019-01-26T02:56:47.849Z,5.21
2019-01-26T02:57:52.772Z,5.27
2019-01-26T02:58:57.563Z,5.21
2019-01-26T03:00:02.452Z,5.26
2019-01-26T03:01:07.687Z,5.27
2019-01-26T03:02:12.781Z,5.24
2019-01-26T03:03:18.406Z,5.26
2019-01-26T03:04:23.200Z,5.24
2019-01-26T03:05:28.026Z,5.30
2019-01-26T03:06:33.179Z,5.29
2019-01-26T03:07:38.696Z,5.27
2019-01-26T03:08:43.512Z,5.28
2019-01-26T03:09:48.374Z,5.29
2019-01-26T03:10:53.203Z,5.30
2019-01-26T03:11:57.719Z,5.30
2019-01-26T03:13:02.274Z,5.28
2019-01-26T03:14:07.972Z,5.32
2019-01-26T03:15:15.421Z,5.33
2019-01-26T03:16:20.245Z,5.33
2019-01-26T03:17:25.564Z,5.30
2019-01-26T03:18:31.071Z,5.31
2019-01-26T03:19:35.860Z,5.31
2019-01-26T03:20:41.108Z,5.32
2019-01-26T03:21:46.304Z,5.32
2019-01-26T03:22:51.142Z,5.30
2019-01-26T03:23:56.229Z,5.33
2019-01-26T03:25:01.773Z,5.35
2019-01-26T03:26:07.533Z,5.33
2019-01-26T03:27:13.345Z,5.32
2019-01-26T03:28:18.519Z,5.34
2019-01-26T03:29:24.319Z,5.37
2019-01-26T03:30:29.114Z,5.36
2019-01-26T03:31:34.498Z,5.37
2019-01-26T03:32:39.471Z,5.40
2019-01-26T03:33:44.649Z,5.39
2019-01-26T03:34:50.175Z,5.39
2019-01-26T03:35:58.485Z,5.39
2019-01-26T03:37:03.697Z,5.38
2019-01-26T03:38:08.959Z,5.39
2019-01-26T03:39:14.294Z,5.39
2019-01-26T03:40:20.704Z,5.38
2019-01-26T03:41:26.299Z,5.38
2019-01-26T03:42:31.221Z,5.42
2019-01-26T03:43:36.046Z,5.41
2019-01-26T03:44:40.828Z,5.43
2019-01-26T03:45:45.720Z,5.40
2019-01-26T03:46:50.828Z,5.41
2019-01-26T03:47:55.704Z,5.42
2019-01-26T03:49:00.861Z,5.41
2019-01-26T03:50:07.440Z,5.44
2019-01-26T03:51:12.968Z,5.42
2019-01-26T03:52:18.354Z,5.42
2019-01-26T03:53:23.945Z,5.44
2019-01-26T03:54:29.802Z,5.45
2019-01-26T03:55:34.981Z,5.45
2019-01-26T03:56:39.771Z,5.47
2019-01-26T03:57:45.302Z,5.48
2019-01-26T03:58:50.461Z,5.47
2019-01-26T03:59:55.283Z,5.48
2019-01-26T04:01:00.448Z,5.48
2019-01-26T04:02:05.570Z,5.48
2019-01-26T04:03:10.505Z,5.50
2019-01-26T04:04:15.426Z,5.51
2019-01-26T04:05:20.993Z,5.49
2019-01-26T04:06:26.079Z,5.50
2019-01-26T04:07:31.235Z,5.54
2019-01-26T04:08:36.034Z,5.51
2019-01-26T04:09:41.309Z,5.50
2019-01-26T04:10:46.120Z,5.54
2019-01-26T04:11:50.901Z,5.51
2019-01-26T04:12:55.783Z,5.52
2019-01-26T04:14:00.999Z,5.53
2019-01-26T04:15:06.278Z,5.52
2019-01-26T04:16:11.395Z,5.53
2019-01-26T04:17:21.738Z,5.53
2019-01-26T04:18:23.358Z,5.53
2019-01-26T04:19:28.189Z,5.52
2019-01-26T04:20:32.963Z,5.53
2019-01-26T04:21:38.416Z,5.50
2019-01-26T04:22:43.542Z,5.53
2019-01-26T04:23:48.065Z,5.55
2019-01-26T04:24:52.883Z,5.54
2019-01-26T04:25:58.696Z,5.54
2019-01-26T04:27:03.190Z,5.59
2019-01-26T04:28:08.646Z,5.59
2019-01-26T04:29:13.783Z,5.59
2019-01-26T04:30:20.703Z,5.60
2019-01-26T04:31:25.483Z,5.61
2019-01-26T04:32:30.444Z,5.59
2019-01-26T04:33:35.331Z,5.59
2019-01-26T04:34:40.761Z,5.59
2019-01-26T04:35:45.563Z,5.60
2019-01-26T04:36:50.379Z,5.64
2019-01-26T04:37:55.485Z,5.64
2019-01-26T04:39:01.045Z,5.65
2019-01-26T04:40:08.873Z,5.63
2019-01-26T04:41:13.562Z,5.65
2019-01-26T04:42:18.689Z,5.67
2019-01-26T04:43:23.863Z,5.69
2019-01-26T04:44:28.650Z,5.68
2019-01-26T04:45:33.476Z,5.69
2019-01-26T04:46:38.274Z,5.67
2019-01-26T04:47:43.379Z,5.70
2019-01-26T04:48:48.932Z,5.67
2019-01-26T04:49:53.794Z,5.70
2019-01-26T04:50:58.323Z,5.74
2019-01-26T04:52:03.530Z,5.72
2019-01-26T04:53:08.335Z,5.69
2019-01-26T04:54:13.645Z,5.75
2019-01-26T04:55:18.948Z,5.77
2019-01-26T04:56:24.181Z,5.74
2019-01-26T04:57:29.315Z,5.75
2019-01-26T04:58:34.108Z,5.74
2019-01-26T04:59:39.277Z,5.75
2019-01-26T05:00:44.134Z,5.74
2019-01-26T05:01:49.270Z,5.75
2019-01-26T05:02:54.895Z,5.77
2019-01-26T05:03:59.683Z,5.77
2019-01-26T05:05:04.453Z,5.79
2019-01-26T05:06:09.610Z,5.78
2019-01-26T05:07:14.765Z,5.79
2019-01-26T05:08:20.247Z,5.82
2019-01-26T05:09:25.746Z,5.82
2019-01-26T05:10:31.392Z,5.79
2019-01-26T05:11:36.581Z,5.78
2019-01-26T05:12:42.132Z,5.79
2019-01-26T05:13:47.275Z,5.79
2019-01-26T05:14:52.451Z,5.82
2019-01-26T05:15:58.054Z,5.79
2019-01-26T05:17:03.628Z,5.79
2019-01-26T05:18:08.967Z,5.83
2019-01-26T05:19:13.839Z,5.85
2019-01-26T05:20:21.297Z,5.81
2019-01-26T05:21:26.419Z,5.85
2019-01-26T05:22:31.505Z,5.85
2019-01-26T05:23:36.705Z,5.84
2019-01-26T05:24:41.193Z,5.86
2019-01-26T05:25:45.973Z,5.86
2019-01-26T05:26:50.761Z,5.90
2019-01-26T05:27:55.846Z,5.87
2019-01-26T05:29:00.393Z,5.87
2019-01-26T05:30:05.880Z,5.88
2019-01-26T05:31:10.386Z,5.89
2019-01-26T05:32:15.575Z,5.88
2019-01-26T05:33:20.816Z,5.88
2019-01-26T05:34:26.000Z,5.86
2019-01-26T05:35:30.799Z,5.88
2019-01-26T05:36:36.005Z,5.86
2019-01-26T05:37:41.464Z,5.89
2019-01-26T05:38:46.607Z,5.91
2019-01-26T05:39:51.368Z,5.90
2019-01-26T05:40:56.434Z,5.90
2019-01-26T05:42:01.576Z,5.90
2019-01-26T05:43:06.376Z,5.92
2019-01-26T05:44:11.278Z,5.91
2019-01-26T05:45:18.079Z,5.92
2019-01-26T05:46:22.900Z,5.92
2019-01-26T05:47:27.648Z,5.89
2019-01-26T05:48:32.168Z,5.93
2019-01-26T05:49:37.283Z,5.91
2019-01-26T05:50:42.420Z,5.90
2019-01-26T05:51:47.843Z,5.93
2019-01-26T05:52:53.105Z,5.92
2019-01-26T05:53:59.006Z,5.95
2019-01-26T05:55:04.269Z,5.94
2019-01-26T05:56:09.157Z,5.95
2019-01-26T05:57:13.911Z,5.96
2019-01-26T05:58:18.734Z,5.96
2019-01-26T05:59:23.495Z,5.96
2019-01-26T06:00:39.259Z,5.94
2019-01-26T06:01:44.709Z,5.95
2019-01-26T06:02:49.491Z,5.95
2019-01-26T06:03:54.277Z,5.93
2019-01-26T06:04:59.365Z,5.96
2019-01-26T06:06:04.116Z,5.95
2019-01-26T06:07:08.908Z,5.95
2019-01-26T06:08:13.742Z,5.98
2019-01-26T06:09:19.225Z,5.98
2019-01-26T06:10:24.002Z,6.01
2019-01-26T06:11:29.124Z,5.99
2019-01-26T06:12:33.889Z,5.98
2019-01-26T06:13:39.812Z,5.99
2019-01-26T06:14:44.945Z,6.01
2019-01-26T06:15:50.182Z,6.01
2019-01-26T06:16:55.843Z,6.00
2019-01-26T06:18:01.409Z,5.99
2019-01-26T06:19:05.901Z,6.00
2019-01-26T06:20:11.182Z,6.01
2019-01-26T06:21:15.957Z,6.00
2019-01-26T06:22:21.104Z,6.01
2019-01-26T06:23:26.867Z,5.98
2019-01-26T06:24:31.726Z,5.99
2019-01-26T06:25:36.527Z,6.01
2019-01-26T06:26:41.312Z,6.04
2019-01-26T06:27:46.461Z,6.01
2019-01-26T06:28:52.094Z,6.03
2019-01-26T06:29:57.516Z,6.05
2019-01-26T06:31:02.738Z,6.06
2019-01-26T06:32:07.229Z,6.07
2019-01-26T06:33:12.432Z,6.07
2019-01-26T06:34:17.512Z,6.07
2019-01-26T06:35:22.282Z,6.05
2019-01-26T06:36:27.116Z,6.05
2019-01-26T06:37:31.603Z,6.04
2019-01-26T06:38:36.411Z,6.03
2019-01-26T06:39:41.612Z,6.03
2019-01-26T06:40:46.413Z,6.02
2019-01-26T06:41:51.657Z,6.03
2019-01-26T06:42:56.495Z,6.03
2019-01-26T06:44:01.596Z,6.05
2019-01-26T06:45:07.085Z,6.06
2019-01-26T06:46:12.292Z,6.05
2019-01-26T06:47:17.592Z,6.08
2019-01-26T06:48:22.373Z,6.09
2019-01-26T06:49:27.146Z,6.06
2019-01-26T06:50:32.689Z,6.09
2019-01-26T06:51:38.947Z,6.09
2019-01-26T06:52:44.071Z,6.09
2019-01-26T06:53:48.908Z,6.09
2019-01-26T06:54:53.392Z,6.07
2019-01-26T06:55:58.499Z,6.07
2019-01-26T06:57:03.619Z,6.09
2019-01-26T06:58:09.288Z,6.09
2019-01-26T06:59:14.714Z,6.09
2019-01-26T07:00:22.208Z,6.07
2019-01-26T07:01:27.027Z,6.05
2019-01-26T07:02:31.807Z,6.09
2019-01-26T07:03:36.707Z,6.10
2019-01-26T07:04:50.274Z,6.11
2019-01-26T07:06:20.049Z,6.11
2019-01-26T07:07:25.640Z,6.14
2019-01-26T07:08:30.766Z,6.11
2019-01-26T07:09:35.520Z,6.12
2019-01-26T07:10:41.056Z,6.10
2019-01-26T07:11:46.257Z,6.13
2019-01-26T07:12:51.770Z,6.10
2019-01-26T07:13:56.546Z,6.11
2019-01-26T07:15:01.141Z,6.11
2019-01-26T07:16:06.322Z,6.11
2019-01-26T07:17:11.179Z,6.12
2019-01-26T07:18:15.946Z,6.10
2019-01-26T07:19:20.725Z,6.12
2019-01-26T07:20:25.959Z,6.15
2019-01-26T07:21:31.040Z,6.12
2019-01-26T07:22:35.838Z,6.12
2019-01-26T07:23:40.337Z,6.14
2019-01-26T07:24:45.516Z,6.13
2019-01-26T07:25:50.280Z,6.14
2019-01-26T07:26:55.059Z,6.12
2019-01-26T07:27:59.854Z,6.12
2019-01-26T07:29:04.615Z,6.15
2019-01-26T07:30:12.095Z,6.12
2019-01-26T07:31:16.897Z,6.14
2019-01-26T07:32:21.677Z,6.14
2019-01-26T07:33:26.834Z,6.15
2019-01-26T07:34:31.305Z,6.18
2019-01-26T07:35:36.435Z,6.15
2019-01-26T07:36:40.925Z,6.14
2019-01-26T07:37:46.798Z,6.18
2019-01-26T07:38:51.572Z,6.17
2019-01-26T07:39:56.686Z,6.18
2019-01-26T07:41:01.482Z,6.19
2019-01-26T07:42:06.266Z,6.19
2019-01-26T07:43:11.394Z,6.19
2019-01-26T07:44:15.997Z,6.25
2019-01-26T07:45:20.820Z,6.20
2019-01-26T07:46:25.621Z,6.23
2019-01-26T07:47:30.413Z,6.23
2019-01-26T07:48:35.291Z,6.27
2019-01-26T07:49:40.431Z,6.24
2019-01-26T07:50:45.298Z,6.24
2019-01-26T07:51:50.044Z,6.28
2019-01-26T07:52:55.319Z,6.29
2019-01-26T07:53:59.827Z,6.27
2019-01-26T07:55:04.637Z,6.29
2019-01-26T07:56:09.422Z,6.31
2019-01-26T07:57:14.326Z,6.28
2019-01-26T07:58:18.892Z,6.28
2019-01-26T07:59:24.791Z,6.30
2019-01-26T08:00:29.315Z,6.30
2019-01-26T08:01:34.622Z,6.30
2019-01-26T08:02:39.753Z,6.31
2019-01-26T08:03:44.548Z,6.34
2019-01-26T08:04:49.403Z,6.31
2019-01-26T08:05:54.193Z,6.34
2019-01-26T08:06:58.940Z,6.34
2019-01-26T08:08:03.436Z,6.33
2019-01-26T08:09:10.261Z,6.34
2019-01-26T08:10:17.607Z,6.33
2019-01-26T08:11:22.802Z,6.35
2019-01-26T08:12:28.050Z,6.32
2019-01-26T08:13:33.298Z,6.33
2019-01-26T08:14:38.067Z,6.34
2019-01-26T08:15:42.840Z,6.34
2019-01-26T08:16:48.035Z,6.34
2019-01-26T08:17:52.853Z,6.33
2019-01-26T08:18:57.362Z,6.34
2019-01-26T08:20:02.623Z,6.37
2019-01-26T08:21:07.398Z,6.40
2019-01-26T08:22:12.608Z,6.36
2019-01-26T08:23:18.082Z,6.36
2019-01-26T08:24:22.883Z,6.36
2019-01-26T08:25:30.086Z,6.34
2019-01-26T08:26:35.839Z,6.37
2019-01-26T08:27:41.397Z,6.36
2019-01-26T08:28:46.716Z,6.35
2019-01-26T08:29:51.485Z,6.35
2019-01-26T08:30:56.268Z,6.31
2019-01-26T08:32:01.680Z,6.33
2019-01-26T08:33:06.520Z,6.33
2019-01-26T08:34:12.042Z,6.33
2019-01-26T08:35:17.282Z,6.32
2019-01-26T08:36:23.108Z,6.35
2019-01-26T08:37:27.883Z,6.32
2019-01-26T08:38:33.882Z,6.34
2019-01-26T08:39:39.181Z,6.39
2019-01-26T08:40:44.043Z,6.41
2019-01-26T08:41:49.170Z,6.39
2019-01-26T08:42:54.717Z,6.37
2019-01-26T08:43:59.531Z,6.41
2019-01-26T08:45:04.553Z,6.42
2019-01-26T08:46:10.032Z,6.40
2019-01-26T08:47:15.138Z,6.42
2019-01-26T08:48:20.253Z,6.45
2019-01-26T08:49:25.406Z,6.47
2019-01-26T08:50:30.475Z,6.48
2019-01-26T08:51:35.247Z,6.50
2019-01-26T08:52:40.044Z,6.50
2019-01-26T08:53:44.824Z,6.52
2019-01-26T08:54:50.545Z,6.55
2019-01-26T08:55:55.827Z,6.53
2019-01-26T08:57:00.594Z,6.58
2019-01-26T08:58:05.353Z,6.58
2019-01-26T08:59:11.410Z,6.61
2019-01-26T09:00:19.258Z,6.59
2019-01-26T09:01:24.289Z,6.64
2019-01-26T09:02:51.211Z,6.68
2019-01-26T09:04:24.409Z,6.69
2019-01-26T09:05:32.301Z,6.73
2019-01-26T09:06:40.204Z,6.70
2019-01-26T09:07:45.515Z,6.70
2019-01-26T09:08:51.286Z,6.71
2019-01-26T09:09:56.122Z,6.69
2019-01-26T09:11:01.349Z,6.70
2019-01-26T09:12:06.321Z,6.68
2019-01-26T09:13:12.057Z,6.68
2019-01-26T09:14:16.858Z,6.68
2019-01-26T09:15:22.561Z,6.68
2019-01-26T09:16:27.114Z,6.68
2019-01-26T09:17:32.480Z,6.69
2019-01-26T09:18:39.081Z,6.69
2019-01-26T09:19:43.751Z,6.72
2019-01-26T09:20:49.069Z,6.69
2019-01-26T09:21:53.848Z,6.68
2019-01-26T09:22:59.097Z,6.68
2019-01-26T09:24:03.941Z,6.66
2019-01-26T09:25:09.082Z,6.64
2019-01-26T09:26:14.298Z,6.68
2019-01-26T09:27:19.179Z,6.73
2019-01-26T09:28:24.036Z,6.71
2019-01-26T09:29:28.926Z,6.73
2019-01-26T09:30:33.703Z,6.77
2019-01-26T09:32:00.710Z,6.75
2019-01-26T09:33:08.377Z,6.76
2019-01-26T09:34:13.230Z,6.79
2019-01-26T09:35:18.739Z,6.78
2019-01-26T09:36:23.527Z,6.79
2019-01-26T09:37:28.764Z,6.77
2019-01-26T09:38:33.922Z,6.79
2019-01-26T09:39:38.811Z,6.77
2019-01-26T09:40:44.949Z,6.79
2019-01-26T09:41:49.836Z,6.79
2019-01-26T09:42:54.734Z,6.77
2019-01-26T09:43:59.512Z,6.79
2019-01-26T09:45:04.062Z,6.80
2019-01-26T09:46:09.168Z,6.83
2019-01-26T09:47:14.377Z,6.85
2019-01-26T09:48:19.168Z,6.85
2019-01-26T09:49:23.950Z,6.82
2019-01-26T09:50:28.732Z,6.83
2019-01-26T09:51:33.944Z,6.86
2019-01-26T09:52:38.762Z,6.89
2019-01-26T09:53:45.137Z,6.92
2019-01-26T09:54:51.006Z,6.92
2019-01-26T09:55:56.201Z,6.88
2019-01-26T09:57:01.005Z,6.91
2019-01-26T09:58:06.156Z,6.94
2019-01-26T09:59:11.109Z,6.98
2019-01-26T10:00:18.228Z,6.98
2019-01-26T10:01:22.976Z,7.00
2019-01-26T10:02:28.576Z,7.06
2019-01-26T10:03:33.343Z,7.08
2019-01-26T10:04:38.842Z,7.07
2019-01-26T10:05:43.902Z,7.10
2019-01-26T10:06:48.781Z,7.12
2019-01-26T10:07:53.954Z,7.09
2019-01-26T10:08:58.725Z,7.14
2019-01-26T10:10:03.499Z,7.16
2019-01-26T10:11:08.607Z,7.18
2019-01-26T10:12:14.034Z,7.21
2019-01-26T10:13:19.134Z,7.26
2019-01-26T10:14:23.906Z,7.20
2019-01-26T10:15:29.306Z,7.17
2019-01-26T10:16:34.407Z,7.21
2019-01-26T10:17:45.776Z,7.26
2019-01-26T10:18:53.306Z,7.32
2019-01-26T10:19:53.302Z,7.35
2019-01-26T10:20:58.401Z,7.40
2019-01-26T10:22:02.881Z,7.39
2019-01-26T10:23:08.035Z,7.41
2019-01-26T10:24:12.541Z,7.39
2019-01-26T10:25:17.595Z,7.40
2019-01-26T10:26:22.891Z,7.45
2019-01-26T10:27:27.658Z,7.40
2019-01-26T10:28:32.180Z,7.42
2019-01-26T10:29:36.998Z,7.41
2019-01-26T10:30:51.599Z,7.43
2019-01-26T10:31:56.352Z,7.42
2019-01-26T10:33:01.146Z,7.43
2019-01-26T10:34:05.955Z,7.39
2019-01-26T10:35:10.453Z,7.40
2019-01-26T10:36:21.917Z,7.41
2019-01-26T10:37:29.555Z,7.49
2019-01-26T10:38:36.410Z,7.52
2019-01-26T10:39:44.958Z,7.52
2019-01-26T10:41:07.286Z,7.52
2019-01-26T10:42:24.467Z,7.62
2019-01-26T10:43:30.272Z,7.74
2019-01-26T10:44:35.266Z,7.73
2019-01-26T10:45:39.761Z,7.81
2019-01-26T10:46:44.291Z,7.85
2019-01-26T10:47:49.061Z,7.88
2019-01-26T10:49:00.471Z,7.84
2019-01-26T10:50:00.722Z,7.79
2019-01-26T10:51:05.869Z,7.82
2019-01-26T10:52:10.656Z,7.80
2019-01-26T10:53:15.856Z,7.79
2019-01-26T10:54:21.463Z,7.71
2019-01-26T10:55:26.227Z,7.72
2019-01-26T10:56:31.003Z,7.72
2019-01-26T10:57:35.836Z,7.70
2019-01-26T10:58:40.653Z,7.79
2019-01-26T10:59:45.426Z,7.74
2019-01-26T11:00:50.827Z,7.76
2019-01-26T11:01:56.517Z,7.76
2019-01-26T11:03:01.675Z,7.74
2019-01-26T11:04:06.459Z,7.81
2019-01-26T11:05:11.284Z,7.82
2019-01-26T11:06:16.418Z,7.82
2019-01-26T11:07:21.508Z,7.90
2019-01-26T11:08:26.260Z,7.85
2019-01-26T11:09:31.531Z,7.86
2019-01-26T11:10:37.041Z,7.88
2019-01-26T11:11:42.226Z,7.88
2019-01-26T11:12:46.994Z,7.94
2019-01-26T11:13:52.095Z,7.88
2019-01-26T11:14:56.902Z,7.99
2019-01-26T11:16:02.002Z,7.95
2019-01-26T11:17:07.197Z,7.96
2019-01-26T11:18:11.684Z,7.95
2019-01-26T11:19:16.463Z,8.03
2019-01-26T11:20:21.585Z,8.07
2019-01-26T11:21:26.364Z,8.05
2019-01-26T11:22:31.260Z,8.08
2019-01-26T11:23:36.048Z,8.01
2019-01-26T11:24:40.558Z,7.91
2019-01-26T11:25:45.329Z,7.96
2019-01-26T11:26:50.205Z,8.00
2019-01-26T11:27:54.971Z,7.97
2019-01-26T11:29:00.069Z,8.07
2019-01-26T11:30:05.469Z,8.18
2019-01-26T11:31:12.121Z,8.18
2019-01-26T11:32:16.923Z,8.17
2019-01-26T11:33:21.433Z,8.12
2019-01-26T11:34:26.199Z,8.06
2019-01-26T11:35:31.109Z,8.17
2019-01-26T11:36:35.966Z,8.16
2019-01-26T11:37:40.755Z,8.17
2019-01-26T11:38:45.933Z,8.19
2019-01-26T11:39:57.391Z,8.20
2019-01-26T11:41:02.781Z,8.18
2019-01-26T11:42:07.272Z,8.32
2019-01-26T11:43:12.182Z,8.26
2019-01-26T11:44:17.676Z,8.29
2019-01-26T11:45:59.517Z,8.28
2019-01-26T11:47:06.999Z,8.28
2019-01-26T11:48:19.178Z,8.27
2019-01-26T11:49:23.683Z,8.32
2019-01-26T11:50:42.458Z,8.35
2019-01-26T11:52:06.092Z,8.41
2019-01-26T11:53:11.214Z,8.33
2019-01-26T11:54:18.580Z,8.23
2019-01-26T11:55:30.915Z,8.16
2019-01-26T11:56:45.077Z,8.14
2019-01-26T11:57:50.287Z,8.13
2019-01-26T11:58:55.785Z,8.12
2019-01-26T12:00:25.860Z,8.05
2019-01-26T12:01:48.474Z,8.06
2019-01-26T12:03:12.098Z,7.97
2019-01-26T12:04:38.818Z,7.98
2019-01-26T12:06:02.413Z,8.02
2019-01-26T12:07:12.539Z,8.25
2019-01-26T12:08:17.392Z,8.49
2019-01-26T12:09:22.169Z,8.48
2019-01-26T12:10:26.947Z,8.64
2019-01-26T12:11:31.461Z,8.72
2019-01-26T12:12:36.223Z,8.79
2019-01-26T12:13:41.365Z,8.77
2019-01-26T12:14:45.859Z,8.93
2019-01-26T12:15:50.428Z,9.10
2019-01-26T12:16:55.725Z,9.26
2019-01-26T12:18:00.822Z,9.28
2019-01-26T12:19:05.338Z,9.41
2019-01-26T12:20:12.981Z,9.29
2019-01-26T12:21:17.747Z,9.27
2019-01-26T12:22:22.579Z,9.21
2019-01-26T12:23:27.338Z,9.12
2019-01-26T12:24:32.439Z,9.02
2019-01-26T12:25:37.999Z,8.96
2019-01-26T12:26:42.526Z,9.02
2019-01-26T12:27:48.098Z,9.02
2019-01-26T12:28:52.898Z,8.94
2019-01-26T12:29:57.394Z,8.87
2019-01-26T12:31:02.559Z,8.83
2019-01-26T12:32:07.079Z,8.71
2019-01-26T12:33:11.868Z,8.70
2019-01-26T12:34:16.646Z,8.67
2019-01-26T12:35:21.443Z,8.65
2019-01-26T12:36:26.219Z,8.72
2019-01-26T12:37:30.728Z,8.71
2019-01-26T12:38:35.842Z,8.74
2019-01-26T12:39:40.960Z,8.70
2019-01-26T12:40:45.766Z,8.73
2019-01-26T12:41:51.179Z,8.79
2019-01-26T12:42:56.361Z,8.85
2019-01-26T12:44:00.849Z,8.89
2019-01-26T12:45:06.913Z,8.87
2019-01-26T12:46:12.061Z,8.82
2019-01-26T12:47:17.050Z,8.79
2019-01-26T12:48:22.008Z,8.72
2019-01-26T12:49:29.650Z,8.74
2019-01-26T12:50:34.022Z,8.77
2019-01-26T12:51:39.140Z,8.78
2019-01-26T12:52:43.634Z,8.70
2019-01-26T12:53:48.770Z,8.71
2019-01-26T12:54:53.555Z,8.70
2019-01-26T12:55:59.166Z,8.64
2019-01-26T12:57:03.938Z,8.58
2019-01-26T12:58:08.490Z,8.58
2019-01-26T12:59:13.508Z,8.47
2019-01-26T13:00:19.723Z,8.55
2019-01-26T13:01:24.528Z,8.61
2019-01-26T13:02:29.835Z,8.68
2019-01-26T13:03:34.651Z,8.69
2019-01-26T13:04:39.828Z,8.61
2019-01-26T13:05:44.985Z,8.56
2019-01-26T13:06:49.770Z,8.58
2019-01-26T13:07:54.952Z,8.54
2019-01-26T13:08:59.759Z,8.43
2019-01-26T13:10:04.554Z,8.43
2019-01-26T13:11:20.709Z,8.43
2019-01-26T13:12:25.482Z,8.41
2019-01-26T13:13:30.581Z,8.47
2019-01-26T13:14:35.137Z,8.45
2019-01-26T13:15:40.557Z,8.46
2019-01-26T13:16:45.351Z,8.42
2019-01-26T13:17:50.148Z,8.43
2019-01-26T13:18:54.962Z,8.41
2019-01-26T13:19:59.742Z,8.39
2019-01-26T13:21:04.532Z,8.26
2019-01-26T13:22:09.639Z,8.21
2019-01-26T13:23:14.450Z,8.25
2019-01-26T13:24:19.245Z,8.31
2019-01-26T13:25:24.462Z,8.36
2019-01-26T13:26:29.238Z,8.36
2019-01-26T13:27:34.008Z,8.32
2019-01-26T13:28:38.784Z,8.28
2019-01-26T13:29:44.373Z,8.23
2019-01-26T13:30:49.566Z,8.30
2019-01-26T13:31:54.313Z,8.37
2019-01-26T13:32:59.141Z,8.41
2019-01-26T13:34:04.451Z,8.37
2019-01-26T13:35:09.968Z,8.36
2019-01-26T13:36:18.154Z,8.32
2019-01-26T13:37:22.923Z,8.37
2019-01-26T13:38:27.817Z,8.27
2019-01-26T13:39:33.258Z,8.27
2019-01-26T13:40:38.032Z,8.27
2019-01-26T13:41:43.113Z,8.28
2019-01-26T13:42:48.218Z,8.26
2019-01-26T13:43:52.979Z,8.22
2019-01-26T13:44:57.770Z,8.23
2019-01-26T13:46:02.972Z,8.17
2019-01-26T13:47:07.795Z,8.16
2019-01-26T13:48:12.875Z,8.15
2019-01-26T13:49:17.772Z,8.13
2019-01-26T13:50:22.619Z,8.14
2019-01-26T13:51:27.097Z,8.15
2019-01-26T13:52:32.297Z,8.14
2019-01-26T13:53:38.225Z,8.16
2019-01-26T13:54:43.189Z,8.17
2019-01-26T13:55:48.688Z,8.14
2019-01-26T13:56:53.479Z,8.15
2019-01-26T13:57:58.275Z,8.16
2019-01-26T13:59:02.762Z,8.13
2019-01-26T14:00:12.874Z,8.10
2019-01-26T14:01:17.674Z,8.08
2019-01-26T14:02:22.426Z,8.08
2019-01-26T14:03:26.906Z,8.06
2019-01-26T14:04:31.381Z,8.09
2019-01-26T14:05:37.078Z,8.06
2019-01-26T14:06:42.866Z,8.05
2019-01-26T14:07:48.470Z,8.10
2019-01-26T14:08:53.640Z,8.11
2019-01-26T14:09:58.966Z,8.14
2019-01-26T14:11:04.006Z,8.14
2019-01-26T14:12:08.916Z,8.15
2019-01-26T14:13:14.597Z,8.15
2019-01-26T14:14:19.819Z,8.15
2019-01-26T14:15:25.357Z,8.16
2019-01-26T14:16:30.155Z,8.13
2019-01-26T14:17:35.225Z,8.18
2019-01-26T14:18:39.999Z,8.13
2019-01-26T14:19:51.072Z,8.12
2019-01-26T14:20:51.959Z,8.13
2019-01-26T14:21:57.479Z,8.12
2019-01-26T14:23:02.969Z,8.09
2019-01-26T14:24:07.754Z,8.02
2019-01-26T14:25:12.840Z,8.02
2019-01-26T14:26:17.694Z,8.00
2019-01-26T14:27:22.869Z,8.00
2019-01-26T14:28:27.361Z,7.96
2019-01-26T14:29:32.678Z,7.96
2019-01-26T14:30:40.388Z,7.96
2019-01-26T14:31:45.819Z,7.96
2019-01-26T14:32:52.543Z,7.94
2019-01-26T14:33:57.784Z,7.89